Time;durP1;ratioP1;P1;durP2;ratioP2;P2;SDS_P1;SDS_P2;PMS_P1;PMS_P2;Temp;Humidity;BMP_temperature;BMP_pressure;BME280_temperature;BME280_humidity;BME280_pressure;Samples;Min_cycle;Max_cycle;Signal;HPM_P1;HPM_P2
2022/12/03 00:01:55;;;;;;;0.93;0.90;;;1.50;98.30;;;;;;4957631;28;20170;-66
2022/12/03 00:04:21;;;;;;;0.83;0.83;;;1.60;98.20;;;;;;4957500;28;20185;-65
2022/12/03 00:06:47;;;;;;;0.30;0.30;;;1.60;98.00;;;;;;4957484;28;20558;-66
2022/12/03 00:09:12;;;;;;;1.47;1.43;;;1.60;97.80;;;;;;4957313;28;20248;-66
2022/12/03 00:11:38;;;;;;;0.60;0.60;;;1.50;97.90;;;;;;4957438;28;20547;-66
2022/12/03 00:14:03;;;;;;;0.30;0.30;;;1.50;98.00;;;;;;4957280;28;20311;-66
2022/12/03 00:16:29;;;;;;;0.30;0.30;;;1.50;98.10;;;;;;4957168;28;20557;-65
2022/12/03 00:18:55;;;;;;;0.60;0.60;;;1.50;98.10;;;;;;4957284;28;20174;-66
2022/12/03 00:21:21;;;;;;;0.77;0.70;;;1.50;98.10;;;;;;4957330;28;20175;-65
2022/12/03 00:23:46;;;;;;;1.17;0.77;;;1.60;98.10;;;;;;4957194;28;20583;-65
2022/12/03 00:26:12;;;;;;;0.30;0.30;;;1.50;98.10;;;;;;4956944;28;20224;-66
2022/12/03 00:28:38;;;;;;;0.50;0.50;;;1.50;98.10;;;;;;4956946;28;20241;-66
2022/12/03 00:31:03;;;;;;;0.30;0.30;;;1.40;98.00;;;;;;4957133;28;20174;-66
2022/12/03 00:33:30;;;;;;;0.30;0.30;;;1.40;98.30;;;;;;4957147;28;20176;-66
2022/12/03 00:35:55;;;;;;;1.67;0.85;;;1.40;98.70;;;;;;4956693;28;20218;-66
2022/12/03 00:38:21;;;;;;;0.33;0.33;;;1.30;98.20;;;;;;4956872;28;20206;-65
2022/12/03 00:40:47;;;;;;;1.50;0.73;;;1.30;98.40;;;;;;4957230;28;20575;-65
2022/12/03 00:43:12;;;;;;;0.50;0.50;;;1.30;98.30;;;;;;4956880;28;20183;-66
2022/12/03 00:45:38;;;;;;;0.30;0.30;;;1.20;98.50;;;;;;4956641;28;20652;-66
2022/12/03 00:48:04;;;;;;;0.30;0.30;;;1.20;98.50;;;;;;4956780;28;20197;-66
2022/12/03 00:50:29;;;;;;;0.40;0.40;;;1.20;98.50;;;;;;4956808;28;20166;-66
2022/12/03 00:52:55;;;;;;;0.40;0.40;;;1.20;98.60;;;;;;4956658;28;20232;-65
2022/12/03 00:55:20;;;;;;;0.40;0.40;;;1.20;98.60;;;;;;4956458;28;20252;-66
2022/12/03 00:57:46;;;;;;;0.40;0.40;;;1.20;98.60;;;;;;4956444;28;20280;-66
2022/12/03 01:00:12;;;;;;;0.30;0.30;;;1.30;98.60;;;;;;4956619;28;20695;-66
2022/12/03 01:02:38;;;;;;;0.60;0.60;;;1.30;98.40;;;;;;4956585;28;20233;-66
2022/12/03 01:05:05;;;;;;;0.40;0.40;;;1.20;98.30;;;;;;4956265;28;20174;-65
2022/12/03 01:07:30;;;;;;;0.30;0.30;;;1.20;98.40;;;;;;4956268;28;20224;-65
2022/12/03 01:09:56;;;;;;;0.90;0.90;;;1.20;98.50;;;;;;4956267;28;20303;-66
2022/12/03 01:12:21;;;;;;;0.37;0.37;;;1.20;98.50;;;;;;4956050;28;20252;-66
2022/12/03 01:14:47;;;;;;;0.33;0.33;;;1.20;98.60;;;;;;4956265;28;20607;-66
2022/12/03 01:17:13;;;;;;;0.30;0.30;;;1.20;98.50;;;;;;4956099;28;20272;-66
2022/12/03 01:19:39;;;;;;;0.30;0.30;;;1.20;98.50;;;;;;4954832;29;20182;-66
2022/12/03 01:22:06;;;;;;;0.88;0.88;;;1.20;98.60;;;;;;4954858;29;20242;-66
2022/12/03 01:24:32;;;;;;;0.55;0.55;;;1.20;98.60;;;;;;4956005;28;20548;-66
2022/12/03 01:26:57;;;;;;;0.40;0.40;;;1.20;98.50;;;;;;4955806;28;20213;-66
2022/12/03 01:29:23;;;;;;;0.77;0.77;;;1.20;98.50;;;;;;4956089;28;20476;-66
2022/12/03 01:34:33;;;;;;;0.32;0.32;;;1.10;98.50;;;;;;4955733;29;20232;-65
2022/12/03 01:36:58;;;;;;;7.60;0.77;;;1.00;98.60;;;;;;4956018;28;20198;-66
2022/12/03 01:39:24;;;;;;;0.30;0.30;;;1.00;98.60;;;;;;4955805;28;20257;-65
2022/12/03 01:41:52;;;;;;;1.60;1.50;;;1.00;98.70;;;;;;4955899;28;20268;-66
2022/12/03 01:44:23;;;;;;;0.30;0.30;;;1.00;98.80;;;;;;4955715;28;20187;-64
2022/12/03 01:46:50;;;;;;;0.90;0.90;;;0.90;98.70;;;;;;4954571;28;20687;-66
2022/12/03 01:49:20;;;;;;;1.15;1.15;;;0.90;98.70;;;;;;4955809;28;20222;-65
2022/12/03 01:51:48;;;;;;;0.60;0.60;;;0.90;98.70;;;;;;4955676;28;20182;-65
2022/12/03 01:54:19;;;;;;;0.38;0.38;;;1.00;98.90;;;;;;4955557;28;20174;-66
2022/12/03 01:56:46;;;;;;;4.22;0.80;;;1.10;98.80;;;;;;4955516;28;20270;-65
2022/12/03 01:59:17;;;;;;;0.40;0.40;;;1.10;98.70;;;;;;4955545;28;20264;-65
2022/12/03 02:01:43;;;;;;;1.15;1.15;;;1.20;98.70;;;;;;4955732;28;20652;-65
2022/12/03 02:04:12;;;;;;;1.13;1.13;;;1.20;98.50;;;;;;4955365;28;20321;-65
2022/12/03 02:06:39;;;;;;;0.75;0.60;;;1.20;98.50;;;;;;4955370;28;20440;-66
2022/12/03 02:09:07;;;;;;;0.40;0.40;;;1.10;98.50;;;;;;4955931;28;20206;-67
2022/12/03 02:11:36;;;;;;;0.30;0.30;;;1.10;98.70;;;;;;4955538;28;20167;-66
2022/12/03 02:14:08;;;;;;;0.60;0.60;;;1.20;98.70;;;;;;4955246;28;20170;-67
2022/12/03 02:16:36;;;;;;;1.17;1.15;;;1.10;98.70;;;;;;4955619;28;20186;-67
2022/12/03 02:19:02;;;;;;;0.38;0.38;;;1.10;98.90;;;;;;4955433;28;20186;-68
2022/12/03 02:21:48;;;;;;;2.22;1.58;;;1.20;99.10;;;;;;4955459;28;20197;-67
2022/12/03 02:24:29;;;;;;;0.40;0.40;;;1.20;99.00;;;;;;4956633;28;20186;-67
2022/12/03 02:26:54;;;;;;;0.55;0.52;;;1.20;98.80;;;;;;4959117;28;20357;-67
2022/12/03 02:29:21;;;;;;;0.30;0.30;;;1.20;98.40;;;;;;4959275;28;20211;-66
2022/12/03 02:31:47;;;;;;;0.40;0.40;;;1.20;98.30;;;;;;4959292;28;20170;-66
2022/12/03 02:34:41;;;;;;;0.40;0.40;;;1.10;98.40;;;;;;4958974;28;20229;-66
2022/12/03 02:37:13;;;;;;;0.50;0.50;;;1.20;98.10;;;;;;4959060;28;20195;-67
2022/12/03 02:39:44;;;;;;;0.40;0.40;;;1.20;98.10;;;;;;4959274;28;20170;-66
2022/12/03 02:44:54;;;;;;;0.30;0.30;;;1.10;98.00;;;;;;4958900;29;20265;-67
2022/12/03 02:47:21;;;;;;;0.50;0.50;;;1.10;98.10;;;;;;4958763;28;20616;-67
2022/12/03 02:49:47;;;;;;;0.50;0.50;;;1.10;98.20;;;;;;4958982;28;20467;-67
2022/12/03 02:52:13;;;;;;;0.30;0.30;;;1.10;98.10;;;;;;4959014;28;20653;-66
2022/12/03 02:54:39;;;;;;;0.80;0.80;;;1.10;98.10;;;;;;4958769;28;20237;-67
2022/12/03 02:57:05;;;;;;;0.40;0.40;;;1.10;98.30;;;;;;4958776;28;20185;-67
2022/12/03 02:59:30;;;;;;;0.30;0.30;;;1.00;98.40;;;;;;4958696;28;20177;-67
2022/12/03 03:01:56;;;;;;;0.40;0.40;;;1.00;98.40;;;;;;4958827;28;20410;-67
2022/12/03 03:04:23;;;;;;;1.80;0.60;;;1.00;98.40;;;;;;4958435;28;20201;-67
2022/12/03 03:06:50;;;;;;;0.40;0.40;;;1.00;98.50;;;;;;4958582;28;21024;-66
2022/12/03 03:09:16;;;;;;;0.98;0.95;;;0.90;98.50;;;;;;4958578;28;20220;-66
2022/12/03 03:11:42;;;;;;;0.65;0.65;;;0.90;98.40;;;;;;4958701;28;20165;-67
2022/12/03 03:14:08;;;;;;;0.30;0.30;;;0.80;98.30;;;;;;4958132;28;20655;-67
2022/12/03 03:16:33;;;;;;;0.33;0.33;;;0.70;98.50;;;;;;4958316;28;20186;-67
2022/12/03 03:19:00;;;;;;;1.57;1.57;;;0.70;98.60;;;;;;4958377;28;20635;-66
2022/12/03 03:21:26;;;;;;;3.30;1.25;;;0.80;98.80;;;;;;4958512;28;20261;-67
2022/12/03 03:23:51;;;;;;;0.50;0.50;;;0.70;98.80;;;;;;4958455;28;20261;-66
2022/12/03 03:26:17;;;;;;;2.37;2.07;;;0.80;98.90;;;;;;4957996;28;20198;-67
2022/12/03 03:28:47;;;;;;;1.23;0.60;;;0.90;98.90;;;;;;4957976;28;20221;-66
2022/12/03 03:31:16;;;;;;;0.30;0.30;;;1.00;98.80;;;;;;4958119;28;20181;-66
2022/12/03 03:33:44;;;;;;;2.00;1.92;;;1.00;98.50;;;;;;4957958;28;20265;-67
2022/12/03 03:36:12;;;;;;;0.30;0.30;;;1.00;98.40;;;;;;4957758;28;20201;-67
2022/12/03 03:38:39;;;;;;;0.50;0.50;;;0.90;98.40;;;;;;4958144;28;20201;-67
2022/12/03 03:41:06;;;;;;;0.30;0.30;;;0.90;98.50;;;;;;4958183;28;20178;-66
2022/12/03 03:43:33;;;;;;;0.40;0.40;;;0.80;98.50;;;;;;4958063;28;20640;-66
2022/12/03 03:46:01;;;;;;;0.40;0.40;;;0.80;98.70;;;;;;4957641;28;20220;-66
2022/12/03 03:48:27;;;;;;;0.50;0.50;;;0.80;98.70;;;;;;4957806;28;20308;-66
2022/12/03 03:50:53;;;;;;;0.30;0.30;;;0.70;98.80;;;;;;4957901;28;20256;-66
2022/12/03 03:53:20;;;;;;;0.67;0.67;;;0.70;98.90;;;;;;4957902;28;20906;-67
2022/12/03 03:55:46;;;;;;;1.45;1.35;;;0.70;99.10;;;;;;4957439;28;20415;-67
2022/12/03 03:58:12;;;;;;;0.82;0.82;;;0.80;99.30;;;;;;4958061;28;20181;-66
2022/12/03 04:00:38;;;;;;;0.75;0.75;;;0.90;99.20;;;;;;4957625;28;20202;-67
2022/12/03 04:03:04;;;;;;;0.30;0.30;;;1.00;99.00;;;;;;4957592;28;20201;-67
2022/12/03 04:05:30;;;;;;;0.30;0.30;;;1.00;98.70;;;;;;4957371;28;20188;-67
2022/12/03 04:07:57;;;;;;;0.67;0.67;;;1.00;98.70;;;;;;4957439;28;20175;-66
2022/12/03 04:13:07;;;;;;;2.70;0.75;;;1.10;98.10;;;;;;4957273;29;20689;-67
2022/12/03 04:15:33;;;;;;;0.30;0.30;;;1.10;98.30;;;;;;4956995;28;20180;-66
2022/12/03 04:20:43;;;;;;;0.30;0.30;;;1.00;98.80;;;;;;4957417;29;20424;-66
2022/12/03 04:23:09;;;;;;;0.30;0.30;;;1.00;98.90;;;;;;4957136;28;20174;-66
2022/12/03 04:36:31;;;;;;;0.30;0.30;;;1.00;98.30;;;;;;4957120;28;20201;-67
2022/12/03 04:38:57;;;;;;;1.03;1.03;;;1.00;98.40;;;;;;4956985;28;20174;-67
2022/12/03 04:41:22;;;;;;;0.30;0.30;;;1.00;98.40;;;;;;4956853;28;20500;-67
2022/12/03 04:46:32;;;;;;;1.95;1.42;;;0.90;98.50;;;;;;4956325;28;20263;-67
2022/12/03 04:48:58;;;;;;;0.30;0.30;;;0.80;98.50;;;;;;4956689;28;20210;-67
2022/12/03 04:51:23;;;;;;;0.30;0.30;;;0.80;98.50;;;;;;4956759;28;20578;-66
2022/12/03 04:53:49;;;;;;;0.40;0.40;;;0.80;98.60;;;;;;4956562;28;20167;-67
2022/12/03 04:56:14;;;;;;;0.80;0.80;;;0.90;98.40;;;;;;4956293;28;20193;-66
2022/12/03 04:58:40;;;;;;;2.00;1.07;;;0.90;98.50;;;;;;4956478;28;20174;-66
2022/12/03 05:01:06;;;;;;;0.97;0.97;;;0.90;98.40;;;;;;4956483;28;20252;-66
2022/12/03 05:03:31;;;;;;;2.10;2.00;;;0.90;98.20;;;;;;4956468;28;20169;-66
2022/12/03 05:05:57;;;;;;;0.40;0.40;;;0.80;98.40;;;;;;4956237;28;20535;-67
2022/12/03 05:08:23;;;;;;;0.40;0.40;;;0.80;98.70;;;;;;4956284;28;20198;-66
2022/12/03 05:10:48;;;;;;;1.50;1.40;;;0.80;98.60;;;;;;4956418;28;20165;-66
2022/12/03 05:13:14;;;;;;;0.40;0.40;;;0.80;98.70;;;;;;4956250;28;20412;-67
2022/12/03 05:15:39;;;;;;;0.40;0.40;;;0.70;98.60;;;;;;4956106;28;20256;-67
2022/12/03 05:18:05;;;;;;;0.60;0.60;;;0.80;98.70;;;;;;4956208;28;20196;-67
2022/12/03 05:20:40;;;;;;;0.40;0.40;;;0.80;98.80;;;;;;4956287;28;20169;-66
2022/12/03 05:23:06;;;;;;;0.38;0.38;;;0.80;98.60;;;;;;4956365;28;20165;-67
2022/12/03 05:25:31;;;;;;;0.30;0.30;;;0.80;98.70;;;;;;4955853;28;20169;-67
2022/12/03 05:27:57;;;;;;;0.30;0.30;;;0.70;98.50;;;;;;4955958;28;20684;-67
2022/12/03 05:30:23;;;;;;;1.27;1.27;;;0.80;98.60;;;;;;4956379;28;20220;-66
2022/12/03 05:32:48;;;;;;;0.40;0.40;;;0.80;98.60;;;;;;4956138;28;20170;-67
2022/12/03 05:35:14;;;;;;;0.33;0.33;;;0.80;98.50;;;;;;4955786;28;20198;-66
2022/12/03 05:37:40;;;;;;;0.60;0.60;;;0.70;98.50;;;;;;4955792;28;20185;-66
2022/12/03 05:40:06;;;;;;;0.40;0.40;;;0.80;98.90;;;;;;4955770;28;20412;-67
2022/12/03 05:43:05;;;;;;;0.30;0.30;;;0.80;98.90;;;;;;4956059;28;20228;-66
2022/12/03 05:45:29;;;;;;;0.40;0.40;;;0.80;98.70;;;;;;4954511;28;20181;-66
2022/12/03 05:47:56;;;;;;;1.25;1.08;;;0.80;98.70;;;;;;4955707;28;20201;-67
2022/12/03 05:50:24;;;;;;;0.43;0.43;;;0.90;98.50;;;;;;4955838;28;20186;-66
2022/12/03 05:52:50;;;;;;;1.33;1.25;;;0.80;98.60;;;;;;4955666;28;20200;-66
2022/12/03 05:55:16;;;;;;;0.30;0.30;;;0.90;98.90;;;;;;4955663;28;20600;-66
2022/12/03 05:57:42;;;;;;;1.23;1.23;;;1.00;98.80;;;;;;4954934;28;20191;-66
2022/12/03 06:00:13;;;;;;;0.57;0.57;;;0.90;98.70;;;;;;4956022;28;20189;-67
2022/12/03 06:02:39;;;;;;;0.30;0.30;;;1.00;98.50;;;;;;4954329;29;20261;-66
2022/12/03 06:05:06;;;;;;;1.30;1.23;;;0.90;98.50;;;;;;4955417;28;20181;-66
2022/12/03 06:07:31;;;;;;;0.40;0.40;;;0.90;98.60;;;;;;4955457;28;20218;-66
2022/12/03 06:09:57;;;;;;;0.30;0.30;;;0.80;98.70;;;;;;4955756;28;20294;-67
2022/12/03 06:12:23;;;;;;;0.30;0.30;;;0.80;99.10;;;;;;4955631;28;20174;-66
2022/12/03 06:14:48;;;;;;;0.30;0.30;;;0.70;98.80;;;;;;4954081;29;20174;-67
2022/12/03 06:17:14;;;;;;;0.30;0.30;;;0.80;99.00;;;;;;4955265;28;20686;-66
2022/12/03 06:19:40;;;;;;;3.23;3.03;;;0.90;99.00;;;;;;4955363;28;20205;-66
2022/12/03 06:22:05;;;;;;;0.40;0.40;;;0.80;98.90;;;;;;4955799;28;20700;-67
2022/12/03 06:24:31;;;;;;;3.67;3.47;;;0.90;98.90;;;;;;4955320;28;20281;-67
2022/12/03 06:26:57;;;;;;;0.73;0.73;;;1.00;98.80;;;;;;4955246;28;20291;-66
2022/12/03 06:29:22;;;;;;;0.30;0.30;;;1.10;98.60;;;;;;4955355;28;20248;-67
2022/12/03 06:31:48;;;;;;;0.50;0.50;;;1.10;98.30;;;;;;4955432;28;20518;-67
2022/12/03 06:34:13;;;;;;;0.50;0.40;;;1.10;98.30;;;;;;4955200;28;20201;-67
2022/12/03 06:36:39;;;;;;;0.40;0.40;;;1.00;98.40;;;;;;4955137;28;20226;-67
2022/12/03 06:39:05;;;;;;;0.77;0.60;;;1.00;98.70;;;;;;4955259;28;20257;-66
2022/12/03 06:41:30;;;;;;;0.37;0.37;;;1.00;98.80;;;;;;4955387;28;20588;-66
2022/12/03 06:43:56;;;;;;;0.90;0.90;;;0.90;98.80;;;;;;4955308;28;20527;-66
2022/12/03 06:46:21;;;;;;;0.30;0.30;;;1.00;99.00;;;;;;4954958;28;20229;-67
2022/12/03 06:48:47;;;;;;;0.30;0.30;;;1.00;99.10;;;;;;4955009;28;20281;-66
2022/12/03 06:51:13;;;;;;;0.80;0.50;;;1.10;99.00;;;;;;4955069;28;20196;-67
2022/12/03 06:53:38;;;;;;;0.50;0.50;;;1.30;98.70;;;;;;4955022;28;20265;-66
2022/12/03 06:56:04;;;;;;;0.40;0.40;;;1.30;98.60;;;;;;4954898;28;20230;-66
2022/12/03 06:58:30;;;;;;;0.30;0.30;;;1.30;98.80;;;;;;4955153;28;20205;-67
2022/12/03 07:00:55;;;;;;;0.60;0.60;;;1.30;98.90;;;;;;4955054;28;20626;-65
2022/12/03 07:03:21;;;;;;;0.60;0.60;;;1.40;98.70;;;;;;4954911;28;20179;-67
2022/12/03 07:05:47;;;;;;;0.40;0.40;;;1.30;98.50;;;;;;4954730;28;20224;-66
2022/12/03 07:08:12;;;;;;;0.30;0.30;;;1.40;98.70;;;;;;4954849;28;20167;-67
2022/12/03 07:10:38;;;;;;;3.17;2.10;;;1.30;98.50;;;;;;4958135;28;20170;-66
2022/12/03 07:13:03;;;;;;;1.03;1.00;;;1.30;98.80;;;;;;4958630;28;20174;-67
2022/12/03 07:15:29;;;;;;;1.00;1.00;;;1.30;98.70;;;;;;4958263;28;20172;-66
2022/12/03 07:17:55;;;;;;;0.80;0.80;;;1.30;98.70;;;;;;4958272;28;20183;-66
2022/12/03 07:20:20;;;;;;;2.43;2.33;;;1.40;98.70;;;;;;4958306;28;20209;-67
2022/12/03 07:22:46;;;;;;;0.30;0.30;;;1.50;98.90;;;;;;4958407;28;20583;-66
2022/12/03 07:25:13;;;;;;;1.73;1.63;;;1.60;98.50;;;;;;4958065;28;20203;-67
2022/12/03 07:27:38;;;;;;;0.77;0.77;;;1.70;98.40;;;;;;4957995;28;20209;-67
2022/12/03 07:30:05;;;;;;;0.60;0.50;;;1.80;98.60;;;;;;4958072;28;20549;-67
2022/12/03 07:32:31;;;;;;;0.95;0.82;;;2.00;98.80;;;;;;4958215;28;20248;-67
2022/12/03 07:34:57;;;;;;;0.70;0.70;;;2.10;98.70;;;;;;4957993;28;20261;-67
2022/12/03 07:37:22;;;;;;;0.60;0.60;;;2.20;98.00;;;;;;4958123;28;20185;-67
2022/12/03 07:39:48;;;;;;;0.37;0.37;;;2.30;97.30;;;;;;4958095;28;20582;-67
2022/12/03 07:42:14;;;;;;;0.77;0.77;;;2.20;97.20;;;;;;4958423;28;20228;-67
2022/12/03 07:44:39;;;;;;;1.13;1.13;;;2.30;97.60;;;;;;4957897;28;20247;-66
2022/12/03 07:47:05;;;;;;;0.40;0.40;;;2.40;97.80;;;;;;4957759;28;20196;-68
2022/12/03 07:49:31;;;;;;;2.97;2.47;;;2.50;97.70;;;;;;4958190;28;20670;-68
2022/12/03 07:51:57;;;;;;;0.60;0.60;;;2.60;97.40;;;;;;4956551;29;20180;-68
2022/12/03 07:54:23;;;;;;;2.97;2.87;;;2.50;97.00;;;;;;4957901;28;20535;-67
2022/12/03 07:56:49;;;;;;;1.20;1.08;;;2.60;96.80;;;;;;4957583;28;20186;-66
2022/12/03 07:59:15;;;;;;;0.40;0.40;;;2.80;97.00;;;;;;4957656;28;20180;-68
2022/12/03 08:01:41;;;;;;;1.63;1.52;;;2.90;97.00;;;;;;4957740;28;20173;-66
2022/12/03 08:04:07;;;;;;;0.67;0.67;;;3.00;96.50;;;;;;4957549;28;20188;-66
2022/12/03 08:06:33;;;;;;;2.27;1.73;;;3.10;96.60;;;;;;4957561;28;20197;-68
2022/12/03 08:08:58;;;;;;;1.27;1.23;;;3.10;95.70;;;;;;4957479;28;20850;-67
2022/12/03 08:11:29;;;;;;;1.17;1.17;;;3.30;95.80;;;;;;4957546;28;20180;-67
2022/12/03 08:13:56;;;;;;;0.50;0.50;;;3.40;95.60;;;;;;4957633;28;20180;-67
2022/12/03 08:16:22;;;;;;;3.35;3.10;;;3.40;95.20;;;;;;4956024;28;20204;-66
2022/12/03 08:18:49;;;;;;;1.47;1.37;;;3.50;95.30;;;;;;4957085;28;20181;-68
2022/12/03 08:21:17;;;;;;;1.65;1.55;;;3.50;95.50;;;;;;4956457;28;20169;-68
2022/12/03 08:23:43;;;;;;;0.45;0.45;;;3.60;96.00;;;;;;4957369;28;20216;-68
2022/12/03 08:26:28;;;;;;;5.20;3.77;;;4.10;96.50;;;;;;4956883;28;20233;-68
2022/12/03 08:28:54;;;;;;;1.60;1.50;;;4.90;95.60;;;;;;4957134;28;20824;-67
2022/12/03 08:31:24;;;;;;;0.70;0.70;;;5.50;94.20;;;;;;4957050;28;20197;-66
2022/12/03 08:33:52;;;;;;;1.48;1.10;;;5.70;93.10;;;;;;4956956;28;20170;-66
2022/12/03 08:36:21;;;;;;;3.90;2.78;;;5.90;92.00;;;;;;4956957;28;20205;-66
2022/12/03 08:38:55;;;;;;;2.90;2.70;;;6.10;91.60;;;;;;4957035;28;20265;-67
2022/12/03 08:44:29;;;;;;;1.98;1.88;;;7.30;90.10;;;;;;4957149;29;20179;-67
2022/12/03 08:47:17;;;;;;;4.55;4.25;;;8.30;89.40;;;;;;4956961;28;20201;-67
2022/12/03 08:49:52;;;;;;;5.68;3.85;;;9.40;86.40;;;;;;4956642;28;20182;-66
2022/12/03 08:52:20;;;;;;;4.53;2.90;;;10.30;81.10;;;;;;4956943;28;20181;-67
2022/12/03 08:54:55;;;;;;;1.70;0.90;;;10.90;77.00;;;;;;4956624;29;20433;-67
2022/12/03 08:57:32;;;;;;;3.23;1.70;;;11.50;75.10;;;;;;4956649;28;20428;-67
2022/12/03 09:00:22;;;;;;;4.13;1.67;;;12.00;72.30;;;;;;4956646;28;20432;-67
2022/12/03 09:02:53;;;;;;;1.73;1.73;;;12.50;70.00;;;;;;4956440;28;20409;-66
2022/12/03 09:05:21;;;;;;;3.43;3.13;;;13.20;67.80;;;;;;4956380;28;20405;-67
2022/12/03 09:07:47;;;;;;;1.53;1.43;;;14.20;65.30;;;;;;4956303;28;20429;-67
2022/12/03 09:10:13;;;;;;;4.20;3.80;;;15.10;59.90;;;;;;4956319;28;21024;-70
2022/12/03 09:12:39;;;;;;;1.33;1.23;;;15.70;58.10;;;;;;4956209;28;20176;-68
2022/12/03 09:15:06;;;;;;;2.97;2.67;;;16.20;55.70;;;;;;4956281;28;20404;-68
2022/12/03 09:17:31;;;;;;;4.53;2.23;;;16.30;54.10;;;;;;4956122;28;20508;-68
2022/12/03 09:19:57;;;;;;;1.07;1.07;;;16.20;53.50;;;;;;4955028;29;21030;-67
2022/12/03 09:22:23;;;;;;;0.97;0.97;;;16.70;53.30;;;;;;4956247;28;20452;-68
2022/12/03 09:24:48;;;;;;;1.77;1.67;;;16.80;50.60;;;;;;4955962;28;20179;-68
2022/12/03 09:27:14;;;;;;;1.67;1.57;;;17.10;50.30;;;;;;4955834;28;20218;-67
2022/12/03 09:29:40;;;;;;;0.83;0.83;;;17.00;50.00;;;;;;4955979;28;20765;-68
2022/12/03 09:32:05;;;;;;;1.30;1.30;;;16.70;49.70;;;;;;4955789;28;20176;-68
2022/12/03 09:34:31;;;;;;;0.60;0.60;;;17.30;50.60;;;;;;4955749;28;20249;-68
2022/12/03 09:36:56;;;;;;;1.37;1.27;;;18.30;49.50;;;;;;4955885;28;20601;-68
2022/12/03 09:39:22;;;;;;;0.50;0.50;;;19.30;47.60;;;;;;4956110;28;20605;-68
2022/12/03 09:41:48;;;;;;;0.60;0.60;;;19.90;45.90;;;;;;4955912;28;20213;-69
2022/12/03 09:44:14;;;;;;;1.13;1.03;;;20.30;45.00;;;;;;4955593;28;20586;-68
2022/12/03 09:46:41;;;;;;;1.83;1.13;;;20.20;43.20;;;;;;4955590;28;20407;-68
2022/12/03 09:49:10;;;;;;;1.30;1.20;;;20.00;43.90;;;;;;4955684;28;20444;-68
2022/12/03 09:51:37;;;;;;;1.43;0.90;;;20.10;43.50;;;;;;4955663;28;20388;-71
2022/12/03 09:54:05;;;;;;;2.43;2.33;;;20.40;42.90;;;;;;4955110;28;20387;-68
2022/12/03 09:56:32;;;;;;;2.03;1.80;;;20.80;42.20;;;;;;4955604;28;20429;-68
2022/12/03 09:58:58;;;;;;;1.53;1.20;;;20.90;42.30;;;;;;4955803;28;20545;-68
2022/12/03 10:01:24;;;;;;;2.20;1.53;;;20.80;42.10;;;;;;4955883;28;20902;-69
2022/12/03 10:03:51;;;;;;;1.40;1.20;;;20.80;41.40;;;;;;4955094;28;20173;-68
2022/12/03 10:06:19;;;;;;;0.73;0.73;;;20.30;42.20;;;;;;4955567;28;20561;-67
2022/12/03 10:08:48;;;;;;;0.60;0.60;;;19.40;42.70;;;;;;4956043;28;20445;-67
2022/12/03 10:11:15;;;;;;;2.37;1.80;;;19.00;43.70;;;;;;4955558;28;20730;-67
2022/12/03 10:13:41;;;;;;;1.03;1.00;;;18.90;43.90;;;;;;4954398;29;20387;-67
2022/12/03 10:16:14;;;;;;;1.23;0.90;;;17.80;44.50;;;;;;4955489;28;20429;-67
2022/12/03 10:18:43;;;;;;;1.53;1.43;;;17.10;46.00;;;;;;4953361;28;20179;-68
2022/12/03 10:21:18;;;;;;;0.40;0.40;;;16.60;47.40;;;;;;4954310;28;20400;-67
2022/12/03 10:23:46;;;;;;;1.67;1.27;;;16.60;47.90;;;;;;4955122;28;20424;-68
2022/12/03 10:26:12;;;;;;;1.50;0.90;;;16.60;46.20;;;;;;4954521;28;20449;-68
2022/12/03 10:28:41;;;;;;;1.00;0.60;;;16.60;47.20;;;;;;4954333;28;20460;-67
2022/12/03 10:31:11;;;;;;;1.40;1.17;;;16.90;46.00;;;;;;4954108;28;20475;-67
2022/12/03 10:33:40;;;;;;;0.97;0.97;;;16.90;46.00;;;;;;4955435;28;20408;-67
2022/12/03 10:36:25;;;;;;;1.20;0.97;;;16.30;46.80;;;;;;4953505;28;20431;-68
2022/12/03 10:39:11;;;;;;;0.90;0.90;;;15.70;47.20;;;;;;4955448;28;20405;-67
2022/12/03 10:41:38;;;;;;;0.47;0.47;;;15.00;48.50;;;;;;4955296;28;20440;-67
2022/12/03 10:44:15;;;;;;;0.80;0.80;;;14.70;49.70;;;;;;4954778;28;20516;-67
2022/12/03 10:46:41;;;;;;;1.10;1.00;;;14.40;51.00;;;;;;4959015;28;20789;-67
2022/12/03 10:49:16;;;;;;;1.50;1.07;;;14.40;50.90;;;;;;4958890;28;20459;-67
2022/12/03 10:51:42;;;;;;;0.70;0.70;;;14.20;51.90;;;;;;4959104;28;20165;-67
2022/12/03 10:54:28;;;;;;;0.90;0.70;;;13.40;52.90;;;;;;4958833;28;20398;-67
2022/12/03 10:56:56;;;;;;;0.60;0.60;;;12.30;53.70;;;;;;4958981;28;20580;-67
2022/12/03 10:59:24;;;;;;;1.00;1.00;;;11.70;55.70;;;;;;4958810;28;20423;-67
2022/12/03 11:01:51;;;;;;;3.40;1.20;;;10.90;56.60;;;;;;4958883;28;20467;-67
2022/12/03 11:04:25;;;;;;;0.60;0.60;;;10.20;59.00;;;;;;4958702;28;20431;-67
2022/12/03 11:06:51;;;;;;;0.43;0.43;;;9.20;57.60;;;;;;4958605;28;20610;-67
2022/12/03 11:09:25;;;;;;;0.60;0.50;;;8.90;59.00;;;;;;4958672;28;20205;-67
2022/12/03 11:11:52;;;;;;;1.33;1.33;;;9.00;61.30;;;;;;4959066;28;20228;-66
2022/12/03 11:14:55;;;;;;;2.35;2.15;;;8.80;58.60;;;;;;4958519;28;20693;-67
2022/12/03 11:17:39;;;;;;;2.25;1.42;;;8.40;58.60;;;;;;4958557;28;20204;-67
2022/12/03 11:20:23;;;;;;;1.25;1.15;;;8.20;62.80;;;;;;4958643;28;20220;-67
2022/12/03 11:22:53;;;;;;;0.98;0.98;;;8.40;64.70;;;;;;4958277;28;20178;-67
2022/12/03 11:25:25;;;;;;;0.80;0.80;;;8.40;61.60;;;;;;4958119;28;20176;-67
2022/12/03 11:28:09;;;;;;;1.50;1.40;;;8.30;63.90;;;;;;4957948;28;20288;-67
2022/12/03 11:30:50;;;;;;;0.50;0.50;;;8.20;63.40;;;;;;4958194;28;20538;-67
2022/12/03 11:33:23;;;;;;;0.85;0.85;;;8.10;63.20;;;;;;4958210;28;20217;-67
2022/12/03 11:36:01;;;;;;;0.90;0.88;;;8.20;64.10;;;;;;4958125;28;20180;-67
2022/12/03 11:38:36;;;;;;;0.45;0.45;;;8.20;66.00;;;;;;4957751;28;20531;-66
2022/12/03 11:41:12;;;;;;;1.25;1.15;;;8.20;64.60;;;;;;4958323;28;20169;-66
2022/12/03 11:43:55;;;;;;;0.40;0.40;;;8.10;64.50;;;;;;4958409;28;20184;-67
2022/12/03 11:46:36;;;;;;;1.48;1.48;;;8.00;66.80;;;;;;4957380;28;20193;-67
2022/12/03 11:49:17;;;;;;;1.23;0.82;;;7.60;68.60;;;;;;4956263;28;20721;-67
2022/12/03 11:51:43;;;;;;;0.88;0.88;;;7.50;70.30;;;;;;4958032;28;20265;-66
2022/12/03 11:54:15;;;;;;;2.25;2.15;;;7.40;71.80;;;;;;4957513;28;20244;-67
2022/12/03 11:56:47;;;;;;;1.42;1.38;;;7.20;72.90;;;;;;4957653;28;20195;-66
2022/12/03 11:59:14;;;;;;;0.73;0.73;;;7.00;74.00;;;;;;4957642;28;20185;-67
2022/12/03 12:01:41;;;;;;;1.80;1.60;;;6.90;75.70;;;;;;4957808;28;20202;-67
2022/12/03 12:04:27;;;;;;;1.25;0.80;;;6.90;76.40;;;;;;4957145;28;20541;-66
2022/12/03 12:06:52;;;;;;;2.60;1.67;;;6.70;77.60;;;;;;4957688;28;20213;-67
2022/12/03 12:09:50;;;;;;;4.10;3.80;;;6.70;79.40;;;;;;4957907;28;20600;-67
2022/12/03 12:12:37;;;;;;;0.77;0.73;;;6.70;80.70;;;;;;4957854;28;20170;-67
2022/12/03 12:15:51;;;;;;;1.02;1.02;;;6.60;81.40;;;;;;4957384;28;20201;-67
2022/12/03 12:18:43;;;;;;;0.70;0.70;;;6.50;82.30;;;;;;4944774;28;20205;-68
2022/12/03 12:21:41;;;;;;;3.67;2.35;;;6.40;83.90;;;;;;4957728;28;20221;-66
2022/12/03 12:24:29;;;;;;;0.40;0.40;;;6.40;85.50;;;;;;4956439;29;20222;-68
2022/12/03 12:26:55;;;;;;;2.45;0.60;;;6.40;85.50;;;;;;4957123;28;20205;-67
2022/12/03 12:29:21;;;;;;;0.40;0.40;;;6.30;86.20;;;;;;4957384;28;20205;-67
2022/12/03 12:31:48;;;;;;;0.77;0.77;;;6.10;88.70;;;;;;4957492;28;20174;-67
2022/12/03 12:34:14;;;;;;;0.60;0.60;;;6.00;89.00;;;;;;4957182;28;20177;-67
2022/12/03 12:36:40;;;;;;;1.80;1.77;;;6.00;88.80;;;;;;4957291;28;20190;-67
2022/12/03 12:39:14;;;;;;;0.90;0.90;;;6.10;86.50;;;;;;4955796;29;20251;-67
2022/12/03 12:41:48;;;;;;;0.80;0.80;;;6.10;84.50;;;;;;4957009;28;20437;-67
2022/12/03 12:44:17;;;;;;;0.30;0.30;;;6.10;82.80;;;;;;4953526;29;20189;-67
2022/12/03 12:46:46;;;;;;;0.50;0.50;;;6.10;78.50;;;;;;4956064;28;20198;-67
2022/12/03 12:49:13;;;;;;;2.47;0.60;;;6.30;76.10;;;;;;4957008;28;20208;-67
2022/12/03 12:51:47;;;;;;;0.50;0.50;;;6.40;75.90;;;;;;4955802;28;20170;-66
2022/12/03 12:54:15;;;;;;;0.50;0.50;;;6.40;75.70;;;;;;4956193;28;20257;-67
2022/12/03 12:56:43;;;;;;;0.40;0.40;;;6.50;73.50;;;;;;4956001;28;20208;-67
2022/12/03 12:59:12;;;;;;;0.75;0.75;;;6.70;73.10;;;;;;4956788;28;20177;-67
2022/12/03 13:01:38;;;;;;;0.73;0.70;;;6.90;73.80;;;;;;4955389;29;20643;-67
2022/12/03 13:04:13;;;;;;;1.45;1.35;;;6.90;75.40;;;;;;4956425;28;20521;-67
2022/12/03 13:06:39;;;;;;;1.15;1.15;;;6.90;75.70;;;;;;4955895;28;20198;-67
2022/12/03 13:09:14;;;;;;;0.98;0.98;;;6.90;76.60;;;;;;4956061;28;20202;-67
2022/12/03 13:11:44;;;;;;;0.40;0.40;;;6.50;74.60;;;;;;4955081;29;20224;-66
2022/12/03 13:14:21;;;;;;;1.85;0.90;;;6.30;72.20;;;;;;4954413;28;20166;-67
2022/12/03 13:16:48;;;;;;;0.90;0.90;;;6.50;71.40;;;;;;4955443;28;20199;-67
2022/12/03 13:19:29;;;;;;;2.78;2.22;;;6.70;77.00;;;;;;4956331;28;20178;-66
2022/12/03 13:21:57;;;;;;;0.93;0.93;;;6.60;81.90;;;;;;4956136;28;20249;-66
2022/12/03 13:24:36;;;;;;;4.43;1.25;;;6.70;82.70;;;;;;4956534;28;20174;-67
2022/12/03 13:27:18;;;;;;;3.03;2.78;;;6.70;83.60;;;;;;4954477;28;20201;-67
2022/12/03 13:30:03;;;;;;;1.75;1.60;;;6.60;84.40;;;;;;4953604;28;20198;-66
2022/12/03 13:32:33;;;;;;;2.10;2.03;;;6.50;85.20;;;;;;4956041;29;20170;-67